Terminal Aerodrome Forecast
Issued by NWS

Home | Current Version | Previous Version | Text Only | Print | Product List | Glossary On
Versions: 1 2 3 4 5 6 7 8 9 10 11 12 13
836
FTPA31 PHFO 140920 AAA
TAFHKO
TAF AMD
PHKO 140920Z 1409/1506 11004KT P6SM FEW025 SCT050
     FM142000 22009KT P6SM SCT060
      AMD NOT SKED=

USA.gov is the U.S. government's official web portal to all federal, state and local government web resources and services.